createdAt,value
2018-11-29T00:01:27.653Z,84.60
2018-11-29T00:03:59.210Z,84.70
2018-11-29T00:06:30.994Z,84.90
2018-11-29T00:09:02.179Z,84.70
2018-11-29T00:11:34.007Z,84.60
2018-11-29T00:14:05.394Z,84.60
2018-11-29T00:16:36.710Z,84.70
2018-11-29T00:19:08.211Z,84.80
2018-11-29T00:21:39.598Z,85.00
2018-11-29T00:24:11.149Z,85.10
2018-11-29T00:26:42.349Z,85.20
2018-11-29T00:29:14.380Z,85.30
2018-11-29T00:31:45.680Z,85.30
2018-11-29T00:34:17.481Z,85.20
2018-11-29T00:36:48.741Z,85.00
2018-11-29T00:39:20.286Z,84.90
2018-11-29T00:41:51.655Z,84.80
2018-11-29T00:44:23.336Z,84.80
2018-11-29T00:46:54.900Z,84.90
2018-11-29T00:49:26.298Z,84.80
2018-11-29T00:51:57.874Z,84.80
2018-11-29T00:54:30.086Z,84.90
2018-11-29T00:57:03.240Z,84.90
2018-11-29T00:59:35.290Z,84.90
2018-11-29T01:02:07.632Z,84.90
2018-11-29T01:04:40.028Z,84.70
2018-11-29T01:07:12.004Z,84.60
2018-11-29T01:09:44.748Z,84.60
2018-11-29T01:12:17.942Z,84.50
2018-11-29T01:14:49.416Z,84.50
2018-11-29T01:17:21.704Z,84.50
2018-11-29T01:19:53.409Z,84.40
2018-11-29T01:22:26.117Z,85.10
2018-11-29T01:24:57.677Z,84.50
2018-11-29T01:27:29.012Z,84.50
2018-11-29T01:30:00.522Z,84.40
2018-11-29T01:32:33.645Z,84.50
2018-11-29T01:35:05.802Z,85.10
2018-11-29T01:37:38.347Z,84.50
2018-11-29T01:40:16.704Z,84.30
2018-11-29T01:42:50.912Z,84.10
2018-11-29T01:45:23.478Z,84.20
2018-11-29T01:47:55.026Z,84.10
2018-11-29T01:50:26.863Z,83.90
2018-11-29T01:52:58.480Z,84.00
2018-11-29T01:55:29.772Z,84.00
2018-11-29T01:58:01.251Z,84.10
2018-11-29T02:00:32.625Z,84.00
2018-11-29T02:03:03.940Z,84.00
2018-11-29T02:05:35.422Z,84.10
2018-11-29T02:08:06.665Z,84.10
2018-11-29T02:10:42.522Z,84.10
2018-11-29T02:13:14.516Z,84.00
2018-11-29T02:15:45.958Z,83.90
2018-11-29T02:18:17.146Z,83.90
2018-11-29T02:20:48.398Z,83.70
2018-11-29T02:23:20.358Z,83.80
2018-11-29T02:25:52.145Z,83.90
2018-11-29T02:28:23.656Z,83.90
2018-11-29T02:30:55.248Z,83.80
2018-11-29T02:33:26.504Z,83.80
2018-11-29T02:35:57.978Z,83.90
2018-11-29T02:38:29.243Z,83.90
2018-11-29T02:41:00.817Z,83.90
2018-11-29T02:43:32.217Z,83.90
2018-11-29T02:46:04.006Z,84.00
2018-11-29T02:48:35.351Z,84.20
2018-11-29T02:51:06.754Z,84.30
2018-11-29T02:53:38.067Z,84.60
2018-11-29T02:56:09.526Z,84.70
2018-11-29T02:58:40.960Z,84.70
2018-11-29T03:01:12.379Z,84.70
2018-11-29T03:03:43.815Z,84.80
2018-11-29T03:06:15.059Z,84.90
2018-11-29T03:08:46.486Z,84.90
2018-11-29T03:11:18.167Z,85.10
2018-11-29T03:13:49.834Z,85.30
2018-11-29T03:16:21.421Z,85.50
2018-11-29T03:18:52.814Z,85.50
2018-11-29T03:21:24.023Z,85.70
2018-11-29T03:23:55.367Z,85.90
2018-11-29T03:26:26.584Z,86.10
2018-11-29T03:28:58.248Z,86.30
2018-11-29T03:31:30.097Z,86.60
2018-11-29T03:34:01.549Z,86.70
2018-11-29T03:36:32.942Z,86.90
2018-11-29T03:39:04.642Z,86.70
2018-11-29T03:41:35.877Z,87.20
2018-11-29T03:44:07.294Z,86.50
2018-11-29T03:46:38.815Z,86.40
2018-11-29T03:49:09.912Z,86.30
2018-11-29T03:51:41.335Z,86.30
2018-11-29T03:54:12.788Z,86.30
2018-11-29T03:56:43.976Z,86.30
2018-11-29T03:59:15.583Z,86.30
2018-11-29T04:01:47.118Z,86.30
2018-11-29T04:04:18.289Z,86.40
2018-11-29T04:06:49.891Z,86.50
2018-11-29T04:09:21.561Z,86.50
2018-11-29T04:11:53.014Z,86.40
2018-11-29T04:14:24.582Z,86.40
2018-11-29T04:16:56.212Z,86.30
2018-11-29T04:19:27.599Z,86.40
2018-11-29T04:21:59.579Z,86.40
2018-11-29T04:24:30.903Z,86.50
2018-11-29T04:27:02.255Z,86.70
2018-11-29T04:29:33.482Z,86.60
2018-11-29T04:32:04.740Z,86.70
2018-11-29T04:34:36.519Z,86.80
2018-11-29T04:37:07.829Z,86.90
2018-11-29T04:39:38.979Z,86.90
2018-11-29T04:42:10.548Z,87.20
2018-11-29T04:44:41.986Z,87.40
2018-11-29T04:47:13.451Z,87.50
2018-11-29T04:49:44.944Z,87.70
2018-11-29T04:52:16.247Z,87.90
2018-11-29T04:54:48.092Z,87.90
2018-11-29T04:57:19.362Z,88.10
2018-11-29T04:59:50.573Z,88.40
2018-11-29T05:02:22.470Z,88.70
2018-11-29T05:04:54.269Z,88.90
2018-11-29T05:07:25.525Z,89.10
2018-11-29T05:09:57.060Z,89.10
2018-11-29T05:12:28.612Z,89.20
2018-11-29T05:14:59.909Z,89.40
2018-11-29T05:17:31.437Z,89.90
2018-11-29T05:20:02.952Z,90.00
2018-11-29T05:22:34.270Z,90.00
2018-11-29T05:25:05.713Z,90.00
2018-11-29T05:27:37.240Z,90.10
2018-11-29T05:30:13.729Z,90.10
2018-11-29T05:32:45.523Z,90.20
2018-11-29T05:35:17.284Z,90.20
2018-11-29T05:37:48.960Z,90.30
2018-11-29T05:40:20.375Z,90.30
2018-11-29T05:42:51.984Z,90.40
2018-11-29T05:45:23.878Z,90.50
2018-11-29T05:47:55.762Z,90.50
2018-11-29T05:50:27.353Z,90.50
2018-11-29T05:52:59.029Z,90.60
2018-11-29T05:55:30.424Z,90.60
2018-11-29T05:58:02.038Z,90.60
2018-11-29T06:00:33.526Z,90.70
2018-11-29T06:03:05.137Z,90.70
2018-11-29T06:05:36.980Z,90.70
2018-11-29T06:08:08.583Z,90.80
2018-11-29T06:10:39.903Z,90.80
2018-11-29T06:13:11.580Z,90.70
2018-11-29T06:15:42.961Z,90.80
2018-11-29T06:18:14.409Z,90.70
2018-11-29T06:20:45.900Z,90.70
2018-11-29T06:23:17.275Z,90.70
2018-11-29T06:25:48.794Z,90.70
2018-11-29T06:28:20.250Z,90.70
2018-11-29T06:30:51.739Z,90.80
2018-11-29T06:33:23.191Z,90.90
2018-11-29T06:35:54.613Z,90.80
2018-11-29T06:38:25.946Z,90.80
2018-11-29T06:40:57.374Z,90.80
2018-11-29T06:43:28.990Z,90.80
2018-11-29T06:46:00.500Z,90.70
2018-11-29T06:48:32.152Z,90.70
2018-11-29T06:51:03.514Z,90.70
2018-11-29T06:53:39.447Z,90.80
2018-11-29T06:56:10.926Z,90.80
2018-11-29T06:58:42.709Z,90.80
2018-11-29T07:01:14.030Z,90.80
2018-11-29T07:03:48.775Z,90.90
2018-11-29T07:06:20.277Z,90.80
2018-11-29T07:08:52.187Z,90.70
2018-11-29T07:11:23.683Z,90.70
2018-11-29T07:13:55.311Z,90.60
2018-11-29T07:16:27.686Z,90.60
2018-11-29T07:18:59.163Z,90.50
2018-11-29T07:21:40.283Z,90.40
2018-11-29T07:24:11.712Z,90.30
2018-11-29T07:26:43.503Z,90.30
2018-11-29T07:29:17.086Z,90.20
2018-11-29T07:31:47.039Z,90.20
2018-11-29T07:34:18.871Z,90.20
2018-11-29T07:36:50.564Z,90.10
2018-11-29T07:39:22.290Z,90.10
2018-11-29T07:41:53.821Z,90.10
2018-11-29T07:44:25.247Z,90.10
2018-11-29T07:46:56.719Z,90.10
2018-11-29T07:49:28.235Z,90.20
2018-11-29T07:51:59.768Z,90.20
2018-11-29T07:54:31.215Z,90.20
2018-11-29T07:57:03.065Z,90.20
2018-11-29T07:59:34.589Z,90.20
2018-11-29T08:02:06.628Z,90.20
2018-11-29T08:04:38.058Z,90.30
2018-11-29T08:07:09.752Z,90.30
2018-11-29T08:09:41.105Z,90.30
2018-11-29T08:12:12.949Z,90.40
2018-11-29T08:14:44.537Z,90.40
2018-11-29T08:17:16.258Z,90.40
2018-11-29T08:19:48.029Z,90.40
2018-11-29T08:22:19.779Z,90.40
2018-11-29T08:24:51.219Z,90.30
2018-11-29T08:27:23.126Z,90.20
2018-11-29T08:29:54.369Z,90.20
2018-11-29T08:32:25.995Z,90.20
2018-11-29T08:34:57.994Z,90.20
2018-11-29T08:37:29.713Z,90.10
2018-11-29T08:40:01.194Z,90.20
2018-11-29T08:42:32.889Z,90.20
2018-11-29T08:45:04.466Z,90.20
2018-11-29T08:47:36.259Z,90.20
2018-11-29T08:50:09.423Z,90.20
2018-11-29T08:52:41.331Z,90.30
2018-11-29T08:55:13.954Z,90.20
2018-11-29T08:57:45.626Z,90.20
2018-11-29T09:00:18.111Z,90.30
2018-11-29T09:02:49.675Z,90.20
2018-11-29T09:05:21.376Z,90.30
2018-11-29T09:07:53.144Z,90.60
2018-11-29T09:10:31.383Z,90.30
2018-11-29T09:12:57.440Z,90.40
2018-11-29T09:15:28.736Z,90.40
2018-11-29T09:18:00.468Z,90.40
2018-11-29T09:20:31.943Z,90.30
2018-11-29T09:23:03.693Z,90.30
2018-11-29T09:25:35.246Z,90.30
2018-11-29T09:28:07.677Z,90.20
2018-11-29T09:30:38.961Z,90.10
2018-11-29T09:33:10.626Z,90.00
2018-11-29T09:35:42.371Z,90.00
2018-11-29T09:38:14.075Z,90.00
2018-11-29T09:40:45.578Z,90.40
2018-11-29T09:43:17.632Z,90.30
2018-11-29T09:45:49.038Z,90.30
2018-11-29T09:48:20.769Z,90.30
2018-11-29T09:50:52.127Z,90.20
2018-11-29T09:53:23.762Z,90.20
2018-11-29T09:55:55.395Z,90.40
2018-11-29T09:58:27.776Z,90.40
2018-11-29T10:00:59.311Z,90.50
2018-11-29T10:03:31.069Z,90.40
2018-11-29T10:06:02.414Z,90.60
2018-11-29T10:08:34.038Z,90.70
2018-11-29T10:11:05.688Z,90.60
2018-11-29T10:13:37.398Z,90.60
2018-11-29T10:16:09.182Z,90.60
2018-11-29T10:18:40.917Z,90.70
2018-11-29T10:21:12.675Z,90.80
2018-11-29T10:23:44.378Z,91.00
2018-11-29T10:26:15.882Z,90.80
2018-11-29T10:28:47.409Z,90.50
2018-11-29T10:31:18.965Z,90.60
2018-11-29T10:33:50.674Z,90.70
2018-11-29T10:36:22.113Z,90.90
2018-11-29T10:38:53.878Z,90.90
2018-11-29T10:41:25.478Z,91.20
2018-11-29T10:43:56.971Z,91.10
2018-11-29T10:46:28.262Z,91.30
2018-11-29T10:48:59.810Z,91.30
2018-11-29T10:51:31.274Z,91.40
2018-11-29T10:54:02.852Z,91.40
2018-11-29T10:56:34.206Z,91.50
2018-11-29T10:59:05.936Z,91.50
2018-11-29T11:01:41.880Z,91.50
2018-11-29T11:04:14.004Z,91.40
2018-11-29T11:06:45.487Z,91.40
2018-11-29T11:09:16.973Z,91.30
2018-11-29T11:11:48.360Z,91.50
2018-11-29T11:14:20.039Z,91.50
2018-11-29T11:16:51.377Z,91.70
2018-11-29T11:19:22.920Z,91.80
2018-11-29T11:21:54.251Z,91.80
2018-11-29T11:24:26.001Z,91.80
2018-11-29T11:26:57.449Z,91.70
2018-11-29T11:29:29.135Z,91.70
2018-11-29T11:32:00.778Z,91.70
2018-11-29T11:34:32.863Z,91.80
2018-11-29T11:37:04.136Z,91.70
2018-11-29T11:39:36.042Z,91.70
2018-11-29T11:42:07.438Z,91.60
2018-11-29T11:44:39.112Z,91.40
2018-11-29T11:47:10.482Z,91.40
2018-11-29T11:49:42.280Z,91.40
2018-11-29T11:52:13.531Z,91.40
2018-11-29T11:54:45.197Z,91.50
2018-11-29T11:57:17.106Z,91.50
2018-11-29T11:59:49.100Z,91.50
2018-11-29T12:02:27.229Z,91.40
2018-11-29T12:04:53.034Z,91.40
2018-11-29T12:07:24.607Z,91.40
2018-11-29T12:09:56.441Z,91.30
2018-11-29T12:12:28.467Z,91.30
2018-11-29T12:15:00.049Z,91.30
2018-11-29T12:17:31.578Z,91.30
2018-11-29T12:20:03.401Z,91.30
2018-11-29T12:22:34.819Z,91.30
2018-11-29T12:25:07.161Z,91.20
2018-11-29T12:27:38.524Z,91.20
2018-11-29T12:30:19.863Z,91.00
2018-11-29T12:32:51.179Z,90.90
2018-11-29T12:35:22.996Z,91.00
2018-11-29T12:37:54.278Z,91.20
2018-11-29T12:40:25.751Z,91.20
2018-11-29T12:42:57.277Z,91.20
2018-11-29T12:45:28.691Z,91.30
2018-11-29T12:48:00.148Z,91.20
2018-11-29T12:50:31.505Z,91.30
2018-11-29T12:53:03.321Z,91.20
2018-11-29T12:55:34.925Z,91.20
2018-11-29T12:58:06.157Z,91.10
2018-11-29T13:00:37.714Z,91.10
2018-11-29T13:03:09.306Z,91.10
2018-11-29T13:05:41.335Z,91.00
2018-11-29T13:08:13.199Z,91.00
2018-11-29T13:10:44.646Z,90.90
2018-11-29T13:13:15.935Z,90.70
2018-11-29T13:15:47.558Z,90.60
2018-11-29T13:18:19.077Z,90.50
2018-11-29T13:20:50.768Z,90.50
2018-11-29T13:23:23.023Z,90.50
2018-11-29T13:25:54.195Z,90.40
2018-11-29T13:28:25.346Z,90.40
2018-11-29T13:30:56.614Z,90.20
2018-11-29T13:33:27.841Z,90.20
2018-11-29T13:35:59.165Z,90.10
2018-11-29T13:38:30.979Z,90.00
2018-11-29T13:41:02.787Z,90.00
2018-11-29T13:43:33.992Z,89.90
2018-11-29T13:46:05.096Z,89.70
2018-11-29T13:48:36.367Z,89.40
2018-11-29T13:51:07.894Z,88.90
2018-11-29T13:53:38.947Z,88.70
2018-11-29T13:56:10.404Z,88.80
2018-11-29T13:58:41.589Z,88.10
2018-11-29T14:01:13.281Z,87.70
2018-11-29T14:03:44.547Z,87.30
2018-11-29T14:06:15.911Z,86.50
2018-11-29T14:08:47.496Z,85.60
2018-11-29T14:11:18.859Z,84.60
2018-11-29T14:13:50.528Z,83.20
2018-11-29T14:16:21.871Z,83.00
2018-11-29T14:18:53.735Z,82.70
2018-11-29T14:21:25.165Z,81.30
2018-11-29T14:23:59.482Z,80.60
2018-11-29T14:26:32.116Z,79.80
2018-11-29T14:29:03.431Z,79.10
2018-11-29T14:31:35.031Z,77.60
2018-11-29T14:34:06.670Z,76.10
2018-11-29T14:36:37.968Z,76.30
2018-11-29T14:39:10.222Z,73.50
2018-11-29T14:41:41.503Z,72.10
2018-11-29T14:44:12.876Z,70.00
2018-11-29T14:46:44.174Z,69.50
2018-11-29T14:49:15.599Z,68.50
2018-11-29T14:51:48.078Z,68.10
2018-11-29T14:54:18.262Z,66.80
2018-11-29T14:56:49.608Z,66.70
2018-11-29T14:59:20.805Z,65.90
2018-11-29T15:01:52.270Z,65.70
2018-11-29T15:04:23.681Z,66.10
2018-11-29T15:06:55.337Z,66.50
2018-11-29T15:09:26.634Z,66.00
2018-11-29T15:11:57.997Z,67.10
2018-11-29T15:14:29.135Z,67.50
2018-11-29T15:17:00.391Z,67.20
2018-11-29T15:19:32.259Z,68.80
2018-11-29T15:22:03.572Z,68.50
2018-11-29T15:24:35.284Z,69.10
2018-11-29T15:27:06.973Z,68.90
2018-11-29T15:29:38.336Z,65.00
2018-11-29T15:32:09.531Z,64.60
2018-11-29T15:34:40.911Z,63.40
2018-11-29T15:37:12.294Z,64.20
2018-11-29T15:39:43.621Z,64.10
2018-11-29T15:42:15.205Z,63.60
2018-11-29T15:44:46.530Z,63.00
2018-11-29T15:47:18.557Z,64.60
2018-11-29T15:49:49.879Z,64.40
2018-11-29T15:52:21.361Z,65.20
2018-11-29T15:54:52.567Z,64.00
2018-11-29T15:57:24.135Z,64.50
2018-11-29T15:59:55.378Z,65.60
2018-11-29T16:02:27.062Z,65.70
2018-11-29T16:04:58.383Z,65.90
2018-11-29T16:07:30.309Z,66.10
2018-11-29T16:10:01.936Z,66.00
2018-11-29T16:12:33.911Z,66.70
2018-11-29T16:15:05.347Z,66.40
2018-11-29T16:17:37.353Z,65.20
2018-11-29T16:20:12.364Z,65.30
2018-11-29T16:22:43.744Z,65.60
2018-11-29T16:25:15.386Z,64.80
2018-11-29T16:27:47.001Z,64.00
2018-11-29T16:31:21.222Z,62.80
2018-11-29T16:33:52.901Z,62.30
2018-11-29T16:36:24.525Z,60.90
2018-11-29T16:38:56.018Z,60.10
2018-11-29T16:41:27.421Z,59.90
2018-11-29T16:43:59.044Z,59.30
2018-11-29T16:46:30.546Z,59.90
2018-11-29T16:49:02.922Z,59.20
2018-11-29T16:51:34.671Z,56.30
2018-11-29T16:54:06.327Z,56.50
2018-11-29T16:56:37.801Z,56.80
2018-11-29T16:59:09.401Z,57.40
2018-11-29T17:01:40.943Z,57.80
2018-11-29T17:04:13.095Z,58.40
2018-11-29T17:06:44.464Z,58.80
2018-11-29T17:09:16.297Z,59.70
2018-11-29T17:11:47.901Z,67.60
2018-11-29T17:14:19.531Z,70.60
2018-11-29T17:16:51.026Z,71.20
2018-11-29T17:19:22.636Z,72.00
2018-11-29T17:21:54.155Z,72.50
2018-11-29T17:24:25.730Z,73.00
2018-11-29T17:26:57.737Z,73.00
2018-11-29T17:29:29.266Z,72.20
2018-11-29T17:32:00.663Z,72.50
2018-11-29T17:34:32.179Z,72.40
2018-11-29T17:37:03.395Z,72.70
2018-11-29T17:39:35.802Z,71.70
2018-11-29T17:42:08.295Z,70.60
2018-11-29T17:47:43.744Z,67.10
2018-11-29T17:50:18.736Z,65.50
2018-11-29T17:52:50.307Z,65.30
2018-11-29T17:55:21.647Z,66.50
2018-11-29T17:57:53.905Z,68.30
2018-11-29T18:00:27.372Z,70.00
2018-11-29T18:02:59.100Z,72.10
2018-11-29T18:05:30.575Z,73.20
2018-11-29T18:08:02.089Z,74.50
2018-11-29T18:10:35.773Z,75.50
2018-11-29T18:13:17.234Z,76.00
2018-11-29T18:15:48.700Z,76.90
2018-11-29T18:18:20.316Z,77.40
2018-11-29T18:20:51.450Z,77.70
2018-11-29T18:23:22.977Z,77.70
2018-11-29T18:25:54.342Z,77.00
2018-11-29T18:28:25.893Z,76.50
2018-11-29T18:30:57.051Z,76.70
2018-11-29T18:33:28.845Z,76.10
2018-11-29T18:36:00.392Z,75.70
2018-11-29T18:38:31.805Z,75.50
2018-11-29T18:41:03.024Z,75.90
2018-11-29T18:43:34.402Z,75.90
2018-11-29T18:46:05.818Z,75.40
2018-11-29T18:48:38.074Z,74.80
2018-11-29T18:51:09.388Z,73.70
2018-11-29T18:53:41.023Z,73.50
2018-11-29T18:56:12.278Z,73.50
2018-11-29T18:58:43.713Z,74.10
2018-11-29T19:01:14.970Z,74.50
2018-11-29T19:03:46.037Z,75.00
2018-11-29T19:06:17.640Z,75.20
2018-11-29T19:08:49.075Z,75.70
2018-11-29T19:11:20.463Z,75.70
2018-11-29T19:13:52.086Z,75.30
2018-11-29T19:16:23.433Z,75.70
2018-11-29T19:18:54.900Z,74.70
2018-11-29T19:21:26.195Z,74.50
2018-11-29T19:23:57.791Z,74.30
2018-11-29T19:26:29.336Z,73.50
2018-11-29T19:29:00.958Z,74.10
2018-11-29T19:31:32.520Z,74.10
2018-11-29T19:34:03.981Z,74.50
2018-11-29T19:36:35.233Z,74.60
2018-11-29T19:39:08.622Z,74.10
2018-11-29T19:41:40.091Z,75.60
2018-11-29T19:44:11.622Z,75.00
2018-11-29T19:46:43.735Z,75.80
2018-11-29T19:49:15.271Z,76.30
2018-11-29T19:51:46.670Z,76.60
2018-11-29T19:54:18.084Z,76.60
2018-11-29T19:56:49.383Z,76.90
2018-11-29T19:59:20.861Z,77.20
2018-11-29T20:01:52.353Z,77.20
2018-11-29T20:04:23.867Z,77.40
2018-11-29T20:06:55.155Z,77.60
2018-11-29T20:09:26.791Z,77.80
2018-11-29T20:11:58.132Z,77.30
2018-11-29T20:14:29.355Z,77.70
2018-11-29T20:17:00.579Z,77.70
2018-11-29T20:19:32.239Z,77.60
2018-11-29T20:22:03.608Z,77.70
2018-11-29T20:24:35.848Z,78.30
2018-11-29T20:27:07.315Z,78.60
2018-11-29T20:29:38.788Z,79.10
2018-11-29T20:32:10.128Z,79.10
2018-11-29T20:34:41.533Z,79.20
2018-11-29T20:37:13.384Z,79.60
2018-11-29T20:39:44.924Z,79.60
2018-11-29T20:42:16.388Z,80.00
2018-11-29T20:44:47.894Z,80.70
2018-11-29T20:47:19.300Z,80.20
2018-11-29T20:49:51.095Z,80.40
2018-11-29T20:52:22.567Z,80.40
2018-11-29T20:54:53.803Z,80.70
2018-11-29T20:57:24.998Z,80.70
2018-11-29T20:59:56.867Z,80.90
2018-11-29T21:02:28.383Z,80.80
2018-11-29T21:04:59.850Z,80.80
2018-11-29T21:07:31.398Z,80.60
2018-11-29T21:10:04.674Z,80.50
2018-11-29T21:12:36.095Z,80.60
2018-11-29T21:15:08.182Z,80.50
2018-11-29T21:17:39.613Z,80.70
2018-11-29T21:20:12.585Z,80.50
2018-11-29T21:22:44.786Z,80.80
2018-11-29T21:25:20.200Z,80.80
2018-11-29T21:27:51.960Z,80.80
2018-11-29T21:30:23.429Z,80.90
2018-11-29T21:32:54.698Z,81.00
2018-11-29T21:35:26.249Z,81.40
2018-11-29T21:37:57.695Z,81.90
2018-11-29T21:40:33.892Z,82.20
2018-11-29T21:43:05.255Z,82.50
2018-11-29T21:45:36.493Z,82.40
2018-11-29T21:48:07.914Z,82.70
2018-11-29T21:50:39.215Z,83.20
2018-11-29T21:53:10.563Z,83.60
2018-11-29T21:55:41.982Z,83.60
2018-11-29T21:58:13.647Z,83.90
2018-11-29T22:00:45.213Z,84.20
2018-11-29T22:03:16.562Z,84.30
2018-11-29T22:05:48.471Z,84.30
2018-11-29T22:08:20.222Z,84.20
2018-11-29T22:10:51.615Z,84.50
2018-11-29T22:13:23.099Z,84.50
2018-11-29T22:15:54.397Z,84.60
2018-11-29T22:18:26.909Z,84.80
2018-11-29T22:21:01.683Z,85.10
2018-11-29T22:23:33.962Z,85.50
2018-11-29T22:26:07.209Z,85.70
2018-11-29T22:28:38.556Z,85.90
2018-11-29T22:31:10.142Z,86.20
2018-11-29T22:33:41.312Z,86.20
2018-11-29T22:36:14.262Z,86.50
2018-11-29T22:38:45.595Z,86.60
2018-11-29T22:41:17.446Z,86.60
2018-11-29T22:43:49.204Z,87.00
2018-11-29T22:46:20.821Z,87.10
2018-11-29T22:48:52.038Z,87.30
2018-11-29T22:51:24.034Z,87.30
2018-11-29T22:53:55.865Z,88.00
2018-11-29T22:56:27.685Z,87.30
2018-11-29T22:58:59.177Z,87.40
2018-11-29T23:01:30.926Z,87.30
2018-11-29T23:04:02.352Z,87.20
2018-11-29T23:06:33.680Z,87.20
2018-11-29T23:09:05.883Z,87.20
2018-11-29T23:11:37.414Z,87.30
2018-11-29T23:14:09.129Z,87.10
2018-11-29T23:16:40.660Z,87.10
2018-11-29T23:19:11.975Z,87.00
2018-11-29T23:21:43.582Z,86.90
2018-11-29T23:24:15.127Z,86.90
2018-11-29T23:26:46.942Z,86.70
2018-11-29T23:29:18.556Z,86.60
2018-11-29T23:31:50.035Z,86.90
2018-11-29T23:34:21.298Z,87.00
2018-11-29T23:36:53.246Z,86.90
2018-11-29T23:39:24.631Z,87.00
2018-11-29T23:41:56.489Z,86.90
2018-11-29T23:44:27.690Z,86.70
2018-11-29T23:46:59.428Z,86.70
2018-11-29T23:49:30.953Z,86.60
2018-11-29T23:52:02.780Z,86.60
2018-11-29T23:54:34.479Z,86.60
2018-11-29T23:57:06.381Z,86.50
2018-11-29T23:59:38.813Z,86.40
